Time;durP1;ratioP1;P1;durP2;ratioP2;P2;SDS_P1;SDS_P2;PMS_P1;PMS_P2;Temp;Humidity;BMP_temperature;BMP_pressure;BME280_temperature;BME280_humidity;BME280_pressure;Samples;Min_cycle;Max_cycle;Signal;HPM_P1;HPM_P2
2021/04/03 00:00:54;;;;;;;14.17;3.00;;;;;;;3.46;78.57;101505.11;113241;1209;64415;-78
2021/04/03 00:03:23;;;;;;;6.70;2.13;;;;;;;3.45;78.37;101509.52;113597;1209;64409;-77
2021/04/03 00:05:51;;;;;;;11.87;2.40;;;;;;;3.45;78.09;101508.69;113173;1209;64378;-77
2021/04/03 00:08:20;;;;;;;13.95;2.80;;;;;;;3.44;78.16;101499.98;113154;1209;64426;-76
2021/04/03 00:10:52;;;;;;;9.17;1.80;;;;;;;3.46;78.07;101505.11;113223;1209;64358;-76
2021/04/03 00:13:21;;;;;;;8.07;1.60;;;;;;;3.46;77.93;101505.97;113301;1209;64374;-76
2021/04/03 00:15:48;;;;;;;17.40;2.77;;;;;;;3.47;77.92;101510.25;112915;1209;64688;-77
2021/04/03 00:18:16;;;;;;;10.45;2.10;;;;;;;3.47;78.08;101514.67;112782;1209;64397;-77
2021/04/03 00:20:46;;;;;;;16.53;2.10;;;;;;;3.45;77.95;101516.56;112755;1209;65180;-77
2021/04/03 00:23:14;;;;;;;20.50;2.50;;;;;;;3.44;78.04;101507.86;113010;1209;64275;-75
2021/04/03 00:25:41;;;;;;;10.33;2.00;;;;;;;3.42;78.28;101509.75;113031;1209;64477;-77
2021/04/03 00:28:08;;;;;;;12.20;2.20;;;;;;;3.40;78.15;101506.40;112908;1209;64455;-77
2021/04/03 00:30:34;;;;;;;11.37;2.00;;;;;;;3.35;79.01;101502.41;113018;1209;64467;-77
2021/04/03 00:33:03;;;;;;;10.37;2.43;;;;;;;3.31;78.85;101500.95;112948;1209;64455;-78
2021/04/03 00:35:32;;;;;;;13.37;2.77;;;;;;;3.25;79.16;101505.69;112953;1209;64831;-77
2021/04/03 00:38:00;;;;;;;31.13;4.20;;;;;;;3.21;79.08;101508.61;113117;1209;64381;-75
2021/04/03 00:40:34;;;;;;;15.43;2.33;;;;;;;3.19;79.63;101511.36;112947;1209;64336;-77
2021/04/03 00:43:03;;;;;;;13.57;2.50;;;;;;;3.15;79.86;101511.69;113006;1209;64461;-77
2021/04/03 00:45:31;;;;;;;11.40;2.65;;;;;;;3.09;79.48;101507.70;113229;1209;64313;-75
2021/04/03 00:47:57;;;;;;;14.97;4.37;;;;;;;3.05;79.89;101508.85;112895;1209;64732;-79
2021/04/03 00:50:30;;;;;;;14.40;3.57;;;;;;;3.00;80.41;101503.93;112935;1209;64448;-77
2021/04/03 00:52:57;;;;;;;15.43;2.33;;;;;;;2.96;80.59;101512.95;113039;1209;64492;-76
2021/04/03 00:55:24;;;;;;;8.70;1.60;;;;;;;2.94;80.86;101508.76;113237;1209;64458;-77
2021/04/03 00:57:51;;;;;;;9.75;2.15;;;;;;;2.91;81.29;101508.95;113012;1209;64499;-76
2021/04/03 01:00:18;;;;;;;9.87;1.60;;;;;;;2.85;81.48;101511.06;113147;1209;64310;-76
2021/04/03 01:02:44;;;;;;;8.75;2.35;;;;;;;2.81;81.70;101520.08;112992;1209;65573;-78
2021/04/03 01:05:14;;;;;;;14.35;3.10;;;;;;;2.80;81.72;101523.62;112941;1209;64490;-76
2021/04/03 01:07:41;;;;;;;9.90;2.30;;;;;;;2.79;81.56;101518.51;112986;1209;65137;-76
2021/04/03 01:10:11;;;;;;;9.97;2.63;;;;;;;2.76;81.53;101514.31;112946;1209;64397;-77
2021/04/03 01:13:07;;;;;;;15.65;2.20;;;;;;;2.74;81.99;101517.96;113080;1209;64384;-75
2021/04/03 01:15:48;;;;;;;10.77;2.87;;;;;;;2.69;81.36;101510.42;112989;1209;64455;-76
2021/04/03 01:18:33;;;;;;;11.60;2.83;;;;;;;2.65;81.45;101520.25;112894;1209;64387;-78
2021/04/03 01:21:15;;;;;;;21.98;3.85;;;;;;;2.60;81.38;101518.91;112985;1209;64387;-75
2021/04/03 01:24:13;;;;;;;28.90;5.23;;;;;;;2.60;80.73;101518.91;112966;1209;64477;-77
2021/04/03 01:27:02;;;;;;;27.77;6.30;;;;;;;2.59;80.64;101514.59;112949;1209;65691;-76
2021/04/03 01:29:28;;;;;;;20.83;4.97;;;;;;;2.54;80.54;101521.94;112892;1209;64521;-77
2021/04/03 01:32:02;;;;;;;25.83;5.83;;;;;;;2.50;80.04;101518.67;112996;1209;65466;-79
2021/04/03 01:34:32;;;;;;;25.63;6.30;;;;;;;2.45;80.05;101518.98;112922;1209;64393;-76
2021/04/03 01:37:04;;;;;;;31.55;6.15;;;;;;;2.41;79.95;101516.67;113011;1209;64320;-77
2021/04/03 01:39:34;;;;;;;35.73;7.07;;;;;;;2.36;79.71;101514.36;112985;1209;64381;-77
2021/04/03 01:42:05;;;;;;;22.90;4.70;;;;;;;2.31;79.56;101521.66;113013;1209;64377;-77
2021/04/03 01:44:36;;;;;;;22.17;4.73;;;;;;;2.28;79.63;101516.64;112974;1209;64487;-76
2021/04/03 01:47:05;;;;;;;38.47;11.20;;;;;;;2.28;79.17;101524.50;113036;1209;64355;-76
2021/04/03 01:49:33;;;;;;;22.80;6.47;;;;;;;2.25;79.08;101522.06;112946;1209;64409;-77
2021/04/03 01:52:01;;;;;;;29.90;7.83;;;;;;;2.21;78.90;101515.35;113037;1209;64384;-76
2021/04/03 01:54:28;;;;;;;26.30;6.67;;;;;;;2.17;78.59;101524.38;112992;1209;64419;-76
2021/04/03 01:56:56;;;;;;;19.05;4.75;;;;;;;2.14;78.87;101530.63;112959;1209;64806;-75
2021/04/03 01:59:25;;;;;;;19.60;3.90;;;;;;;2.13;78.62;101535.98;113084;1209;64506;-77
2021/04/03 02:01:55;;;;;;;7.70;1.75;;;;;;;2.09;78.60;101531.88;113062;1209;64425;-76
2021/04/03 02:04:23;;;;;;;18.90;4.35;;;;;;;2.03;78.68;101533.10;112952;1209;65601;-75
2021/04/03 02:06:52;;;;;;;9.33;2.07;;;;;;;1.99;78.91;101537.69;113208;1209;64514;-75
2021/04/03 02:09:20;;;;;;;8.90;1.70;;;;;;;1.94;78.88;101531.92;112978;1209;64380;-76
2021/04/03 02:11:48;;;;;;;12.37;1.87;;;;;;;1.92;79.12;101525.11;112979;1209;64426;-76
2021/04/03 02:14:16;;;;;;;8.40;1.70;;;;;;;1.90;79.00;101524.37;113120;1209;64442;-76
2021/04/03 02:16:45;;;;;;;8.30;1.50;;;;;;;1.88;78.91;101524.45;113033;1209;64407;-77
2021/04/03 02:19:12;;;;;;;10.17;2.00;;;;;;;1.86;78.76;101523.72;113715;1209;64313;-77
2021/04/03 02:21:40;;;;;;;9.57;2.07;;;;;;;1.84;78.89;101533.44;113112;1209;64384;-77
2021/04/03 02:24:07;;;;;;;6.83;2.07;;;;;;;1.83;79.04;101532.61;115978;1209;63193;-77
2021/04/03 02:26:35;;;;;;;11.57;1.97;;;;;;;1.84;78.70;101538.67;113625;1209;64448;-77
2021/04/03 02:29:06;;;;;;;14.13;1.73;;;;;;;1.83;79.17;101542.23;113003;1209;65588;-76
2021/04/03 02:31:34;;;;;;;8.30;1.87;;;;;;;1.83;79.09;101542.23;112935;1209;64445;-77
2021/04/03 02:34:03;;;;;;;7.90;1.80;;;;;;;1.82;78.93;101548.39;113036;1209;64416;-77
2021/04/03 02:36:29;;;;;;;8.43;2.07;;;;;;;1.79;79.35;101546.81;112992;1209;64899;-77
2021/04/03 02:38:56;;;;;;;12.23;2.00;;;;;;;1.78;79.15;101544.29;112963;1209;64473;-75
2021/04/03 02:41:30;;;;;;;12.53;2.33;;;;;;;1.79;79.27;101543.37;112922;1209;64458;-76
2021/04/03 02:44:22;;;;;;;10.25;2.40;;;;;;;1.78;79.25;101554.75;112940;1209;64342;-76
2021/04/03 02:47:02;;;;;;;5.00;1.47;;;;;;;1.78;79.34;101554.75;113179;1209;64390;-75
2021/04/03 02:49:35;;;;;;;9.53;2.13;;;;;;;1.75;79.44;101560.19;113027;1209;64365;-74
2021/04/03 02:52:03;;;;;;;13.67;1.97;;;;;;;1.78;79.42;101554.75;113039;1209;64339;-76
2021/04/03 02:54:31;;;;;;;19.40;2.43;;;;;;;1.77;79.62;101551.30;112754;1209;65114;-76
2021/04/03 02:57:00;;;;;;;16.33;2.17;;;;;;;1.76;79.79;101554.01;113105;1209;64413;-76
2021/04/03 02:59:33;;;;;;;6.53;1.23;;;;;;;1.74;79.90;101556.74;113213;1209;64374;-77
2021/04/03 03:02:02;;;;;;;8.80;1.95;;;;;;;1.72;80.00;101560.37;112977;1209;64673;-77
2021/04/03 03:04:30;;;;;;;12.97;2.23;;;;;;;1.70;80.53;101562.23;113027;1209;64388;-78
2021/04/03 03:06:58;;;;;;;20.03;2.50;;;;;;;1.70;80.13;101557.00;113030;1209;64391;-78
2021/04/03 03:09:26;;;;;;;12.67;1.90;;;;;;;1.71;80.41;101566.55;113184;1209;64374;-77
2021/04/03 03:11:58;;;;;;;18.30;2.40;;;;;;;1.69;80.52;101565.80;113175;1209;65153;-78
2021/04/03 03:14:27;;;;;;;5.05;1.70;;;;;;;1.66;80.90;101558.13;113244;1209;64310;-77
2021/04/03 03:16:55;;;;;;;14.10;2.73;;;;;;;1.65;81.18;101564.31;113100;1209;64834;-77
2021/04/03 03:19:23;;;;;;;10.40;2.33;;;;;;;1.64;80.74;101563.48;113503;1207;64384;-77
2021/04/03 03:21:51;;;;;;;10.40;2.00;;;;;;;1.65;80.97;101561.70;112929;1209;64381;-78
2021/04/03 03:24:18;;;;;;;13.67;3.00;;;;;;;1.63;81.45;101560.00;113015;1209;64471;-80
2021/04/03 03:26:46;;;;;;;12.85;3.50;;;;;;;1.62;81.40;101565.34;112714;1209;65578;-79
2021/04/03 03:29:13;;;;;;;13.47;1.77;;;;;;;1.61;81.73;101553.20;113123;1209;64426;-79
2021/04/03 03:31:41;;;;;;;17.70;2.40;;;;;;;1.60;81.78;101552.36;113099;1209;64799;-78
2021/04/03 03:34:09;;;;;;;26.93;3.67;;;;;;;1.58;82.11;101546.38;112920;1209;64451;-76
2021/04/03 03:36:39;;;;;;;9.40;1.63;;;;;;;1.55;82.34;101549.20;113157;1208;64917;-77
2021/04/03 03:39:07;;;;;;;9.10;2.10;;;;;;;1.52;82.84;101559.84;112990;1209;64458;-77
2021/04/03 03:41:35;;;;;;;12.83;2.10;;;;;;;1.52;82.67;101559.84;112970;1209;64310;-78
2021/04/03 03:44:06;;;;;;;8.35;2.35;;;;;;;1.52;82.48;101553.77;113269;1209;64461;-76
2021/04/03 03:46:33;;;;;;;8.55;1.55;;;;;;;1.51;83.03;101562.54;112976;1209;64467;-76
2021/04/03 03:49:01;;;;;;;13.00;2.83;;;;;;;1.48;83.13;101557.52;113026;1209;64336;-76
2021/04/03 03:51:28;;;;;;;14.70;2.13;;;;;;;1.46;83.45;101559.38;113075;1209;64359;-77
2021/04/03 03:53:55;;;;;;;16.67;2.40;;;;;;;1.43;83.44;101555.19;112948;1208;64434;-76
2021/04/03 03:56:21;;;;;;;20.50;2.47;;;;;;;1.40;83.98;101555.36;112966;1209;64455;-78
2021/04/03 03:58:49;;;;;;;17.05;2.95;;;;;;;1.40;83.80;101555.36;113059;1209;66598;-77
2021/04/03 04:01:15;;;;;;;13.37;3.33;;;;;;;1.41;84.42;101551.83;115993;1209;62289;-77
2021/04/03 04:03:42;;;;;;;18.85;3.60;;;;;;;1.40;84.59;101565.81;114140;1209;64361;-77
2021/04/03 04:06:08;;;;;;;18.27;2.60;;;;;;;1.39;84.17;101564.16;112935;1209;64407;-76
2021/04/03 04:08:35;;;;;;;17.40;2.35;;;;;;;1.37;84.55;101568.63;112916;1209;64404;-76
2021/04/03 04:11:02;;;;;;;14.87;2.87;;;;;;;1.37;85.00;101571.25;112979;1209;64554;-77
2021/04/03 04:13:29;;;;;;;9.27;3.00;;;;;;;1.36;85.36;101569.55;112978;1209;64397;-77
2021/04/03 04:15:56;;;;;;;12.10;2.70;;;;;;;1.37;85.49;101576.48;112947;1209;64423;-77
2021/04/03 04:18:22;;;;;;;10.47;2.10;;;;;;;1.37;85.35;101581.70;112936;1209;64403;-77
2021/04/03 04:20:49;;;;;;;14.27;2.07;;;;;;;1.35;85.42;101583.56;112956;1209;65465;-75
2021/04/03 04:23:16;;;;;;;16.05;3.25;;;;;;;1.34;86.13;101582.73;112911;1209;64448;-76
2021/04/03 04:25:42;;;;;;;13.35;2.35;;;;;;;1.32;85.99;101581.98;112971;1209;64409;-76
2021/04/03 04:28:08;;;;;;;6.55;1.75;;;;;;;1.31;85.85;101585.52;112944;1209;64435;-76
2021/04/03 04:30:35;;;;;;;24.48;3.45;;;;;;;1.31;85.84;101595.14;112958;1209;64464;-76
2021/04/03 04:33:01;;;;;;;22.50;4.10;;;;;;;1.29;86.34;101600.45;112980;1209;64407;-78
2021/04/03 04:35:28;;;;;;;21.68;2.85;;;;;;;1.29;86.82;101597.01;112958;1209;65588;-76
2021/04/03 04:37:55;;;;;;;16.13;2.93;;;;;;;1.28;86.89;101600.56;112929;1209;65471;-76
2021/04/03 04:40:21;;;;;;;15.75;3.10;;;;;;;1.26;87.04;101611.11;112933;1209;65528;-78
2021/04/03 04:42:50;;;;;;;13.38;2.00;;;;;;;1.27;87.13;101604.09;113137;1209;65555;-78
2021/04/03 04:45:16;;;;;;;14.85;3.85;;;;;;;1.27;86.85;101606.71;113118;1209;65582;-78
2021/04/03 04:47:43;;;;;;;17.63;3.67;;;;;;;1.27;86.81;101609.33;112917;1209;65633;-78
2021/04/03 04:50:10;;;;;;;25.60;4.07;;;;;;;1.26;87.40;101612.89;112905;1209;64409;-77
2021/04/03 04:52:37;;;;;;;8.73;1.67;;;;;;;1.25;87.38;101619.03;112917;1209;64454;-77
2021/04/03 04:55:04;;;;;;;12.30;2.45;;;;;;;1.21;87.21;101619.23;112960;1209;65585;-77
2021/04/03 04:57:31;;;;;;;12.80;3.23;;;;;;;1.19;87.08;101626.32;113019;1209;64381;-78
2021/04/03 04:59:57;;;;;;;15.85;3.20;;;;;;;1.18;87.39;101635.08;112913;1209;64419;-76
2021/04/03 05:02:24;;;;;;;15.57;3.33;;;;;;;1.17;87.54;101643.86;113017;1209;64488;-77
2021/04/03 05:04:51;;;;;;;16.15;3.55;;;;;;;1.17;87.99;101646.48;113058;1209;64371;-77
2021/04/03 05:07:18;;;;;;;17.77;3.87;;;;;;;1.19;88.51;101647.23;113063;1209;64365;-77
2021/04/03 05:09:44;;;;;;;15.00;2.63;;;;;;;1.20;88.28;101648.89;112960;1209;64474;-77
2021/04/03 05:12:11;;;;;;;4.90;1.63;;;;;;;1.25;88.47;101656.45;112929;1209;64473;-77
2021/04/03 05:14:38;;;;;;;12.00;2.70;;;;;;;1.31;88.65;101670.95;112953;1209;64355;-76
2021/04/03 05:17:04;;;;;;;20.37;4.93;;;;;;;1.35;88.78;101675.06;112965;1209;65574;-78
2021/04/03 05:19:31;;;;;;;19.03;3.53;;;;;;;1.39;88.36;101673.95;113008;1209;64471;-77
2021/04/03 05:21:58;;;;;;;24.57;5.13;;;;;;;1.45;88.12;101672.76;113010;1209;64806;-77
2021/04/03 05:24:24;;;;;;;6.95;2.15;;;;;;;1.48;89.12;101678.63;112897;1209;64381;-75
2021/04/03 05:26:51;;;;;;;19.30;4.85;;;;;;;1.55;88.26;101681.70;112961;1209;64802;-75
2021/04/03 05:29:17;;;;;;;15.67;3.50;;;;;;;1.63;88.64;101679.47;112936;1209;64410;-77
2021/04/03 05:31:44;;;;;;;13.67;3.33;;;;;;;1.70;88.75;101678.19;112948;1209;64381;-77
2021/04/03 05:34:10;;;;;;;21.17;3.87;;;;;;;1.77;88.46;101686.50;112942;1209;64598;-75
2021/04/03 05:36:37;;;;;;;18.67;4.10;;;;;;;1.86;88.02;101692.94;112959;1209;65088;-76
2021/04/03 05:39:04;;;;;;;17.30;4.30;;;;;;;1.91;88.46;101699.55;112929;1209;64381;-76
2021/04/03 05:41:31;;;;;;;22.23;4.03;;;;;;;1.95;87.96;101695.81;112963;1209;64435;-77
2021/04/03 05:44:00;;;;;;;15.73;4.30;;;;;;;2.03;87.92;101701.42;112940;1209;64313;-77
2021/04/03 05:46:27;;;;;;;16.25;3.95;;;;;;;2.13;88.02;101701.71;113064;1209;64480;-77
2021/04/03 05:48:55;;;;;;;21.73;3.07;;;;;;;2.19;87.58;101701.33;112938;1209;64474;-75
2021/04/03 05:51:22;;;;;;;23.77;4.33;;;;;;;2.23;87.21;101707.19;112883;1209;64320;-76
2021/04/03 05:53:49;;;;;;;19.83;4.03;;;;;;;2.25;87.27;101705.33;112903;1209;64559;-76
2021/04/03 05:56:17;;;;;;;15.40;2.90;;;;;;;2.33;87.09;101704.85;113152;1209;64486;-76
2021/04/03 05:58:45;;;;;;;21.47;3.97;;;;;;;2.41;87.25;101716.52;112930;1209;64571;-78
2021/04/03 06:01:12;;;;;;;19.80;3.40;;;;;;;2.48;86.79;101721.38;112915;1209;64534;-78
2021/04/03 06:03:38;;;;;;;5.85;2.10;;;;;;;2.51;86.45;101715.93;113004;1209;64470;-76
2021/04/03 06:06:05;;;;;;;28.17;3.83;;;;;;;2.58;86.26;101728.55;112979;1209;64521;-76
2021/04/03 06:08:33;;;;;;;20.80;4.03;;;;;;;2.62;85.88;101722.18;113008;1209;64444;-76
2021/04/03 06:11:18;;;;;;;23.40;4.27;;;;;;;2.69;86.01;101734.89;113546;1209;64308;-76
2021/04/03 06:13:57;;;;;;;6.17;2.93;;;;;;;2.71;85.59;101727.77;112968;1209;64359;-76
2021/04/03 06:16:32;;;;;;;18.00;4.07;;;;;;;2.70;85.45;101732.18;112974;1209;64361;-76
2021/04/03 06:19:14;;;;;;;10.93;2.58;;;;;;;2.75;85.82;101737.95;113245;1209;64474;-76
2021/04/03 06:21:48;;;;;;;14.70;3.70;;;;;;;2.79;85.20;101741.23;112973;1209;64394;-75
2021/04/03 06:24:22;;;;;;;14.03;3.90;;;;;;;2.82;85.11;101738.39;113276;1209;64416;-76
2021/04/03 06:27:02;;;;;;;20.20;4.35;;;;;;;2.86;84.92;101743.34;112913;1209;64380;-76
2021/04/03 06:29:43;;;;;;;31.13;7.07;;;;;;;2.94;84.73;101744.64;112928;1209;65296;-77
2021/04/03 06:32:32;;;;;;;17.55;3.50;;;;;;;3.02;84.54;101745.82;113415;1209;64489;-77
2021/04/03 06:34:59;;;;;;;13.50;2.90;;;;;;;3.09;83.91;101756.73;112936;1209;64429;-76
2021/04/03 06:37:37;;;;;;;15.47;4.13;;;;;;;3.18;83.61;101763.16;112995;1209;64352;-76
2021/04/03 06:40:12;;;;;;;19.35;4.05;;;;;;;3.25;83.23;101759.19;113269;1209;64429;-76
2021/04/03 06:42:47;;;;;;;20.90;3.80;;;;;;;3.29;82.63;101755.42;112980;1209;64460;-75
2021/04/03 06:45:25;;;;;;;17.53;3.77;;;;;;;3.34;82.88;101776.13;112918;1209;64391;-76
2021/04/03 06:47:57;;;;;;;22.10;4.95;;;;;;;3.41;82.61;101769.52;113043;1209;64429;-77
2021/04/03 06:50:26;;;;;;;21.93;3.70;;;;;;;3.51;82.38;101769.73;112991;1209;64323;-75
2021/04/03 06:52:53;;;;;;;12.70;3.27;;;;;;;3.48;81.60;101786.52;113021;1209;64512;-75
2021/04/03 06:55:23;;;;;;;20.03;4.83;;;;;;;3.51;81.92;101785.47;113047;1209;64393;-75
2021/04/03 06:57:52;;;;;;;15.23;3.80;;;;;;;3.51;81.44;101791.58;112934;1209;64470;-75
2021/04/03 07:00:19;;;;;;;11.75;2.85;;;;;;;3.55;81.52;101787.81;112965;1209;64384;-77
2021/04/03 07:02:56;;;;;;;21.60;5.05;;;;;;;3.64;81.09;101791.59;112948;1209;64378;-76
2021/04/03 07:05:25;;;;;;;28.53;5.27;;;;;;;3.70;80.41;101800.82;112898;1209;64997;-75
2021/04/03 07:07:54;;;;;;;27.83;3.87;;;;;;;3.74;80.84;101797.91;115941;1209;62233;-78
2021/04/03 07:10:22;;;;;;;13.25;3.30;;;;;;;3.75;80.69;101802.20;113732;1209;64416;-75
2021/04/03 07:12:49;;;;;;;14.50;3.70;;;;;;;3.73;80.08;101811.97;112976;1209;64473;-74
2021/04/03 07:15:16;;;;;;;24.45;4.85;;;;;;;3.78;80.51;101809.02;112956;1209;65598;-76
2021/04/03 07:17:44;;;;;;;16.03;4.80;;;;;;;3.78;80.34;101809.02;112729;1209;64651;-77
2021/04/03 07:20:16;;;;;;;15.47;3.70;;;;;;;3.86;80.48;101815.44;113055;1209;64387;-75
2021/04/03 07:22:46;;;;;;;13.47;3.90;;;;;;;3.98;80.17;101816.41;113002;1209;64391;-75
2021/04/03 07:25:14;;;;;;;5.83;2.00;;;;;;;4.08;79.48;101819.25;113100;1209;64355;-76
2021/04/03 07:27:46;;;;;;;13.95;3.65;;;;;;;4.17;78.37;101812.52;112975;1209;64931;-74
2021/04/03 07:30:33;;;;;;;17.00;5.73;;;;;;;4.23;78.74;101815.56;113542;1209;64630;-75
2021/04/03 07:33:07;;;;;;;19.70;5.20;;;;;;;4.35;79.04;101819.11;112937;1209;64381;-75
2021/04/03 07:35:43;;;;;;;16.67;4.27;;;;;;;4.47;77.92;101822.69;112975;1209;64403;-76
2021/04/03 07:38:12;;;;;;;15.70;3.93;;;;;;;4.61;78.24;101824.33;113455;1209;64387;-75
2021/04/03 07:40:50;;;;;;;12.90;4.10;;;;;;;4.74;76.95;101822.53;113326;1209;65315;-77
2021/04/03 07:43:29;;;;;;;10.65;3.05;;;;;;;4.82;76.04;101817.54;113041;1209;64448;-75
2021/04/03 07:45:58;;;;;;;13.37;4.57;;;;;;;4.88;75.77;101822.36;112975;1209;64469;-75
2021/04/03 07:48:46;;;;;;;21.37;3.60;;;;;;;4.96;76.21;101826.25;113073;1209;64393;-75
2021/04/03 07:51:15;;;;;;;18.80;4.70;;;;;;;4.96;75.86;101823.62;113423;1209;64368;-75
2021/04/03 07:53:46;;;;;;;19.23;4.70;;;;;;;4.96;75.46;101823.62;113965;1209;64374;-75
2021/04/03 07:56:19;;;;;;;16.87;4.80;;;;;;;5.02;75.23;101833.70;112884;1209;65518;-78
2021/04/03 07:58:50;;;;;;;16.30;5.53;;;;;;;5.11;75.87;101833.86;113320;1209;64480;-75
2021/04/03 08:01:26;;;;;;;12.03;4.43;;;;;;;5.17;74.50;101831.75;113147;1209;64349;-75
2021/04/03 08:04:01;;;;;;;19.73;4.10;;;;;;;5.25;74.68;101830.23;112901;1209;64358;-75
2021/04/03 08:06:33;;;;;;;21.93;4.80;;;;;;;5.27;74.42;101837.99;112933;1209;65627;-75
2021/04/03 08:09:02;;;;;;;10.50;4.00;;;;;;;5.32;73.94;101830.62;112965;1209;64831;-76
2021/04/03 08:11:29;;;;;;;18.35;3.90;;;;;;;5.43;74.57;101840.35;113717;1209;64375;-76
2021/04/03 08:13:58;;;;;;;20.30;4.50;;;;;;;5.56;73.35;101838.48;112886;1209;64407;-76
2021/04/03 08:16:29;;;;;;;9.35;2.80;;;;;;;5.59;72.67;101837.41;112991;1209;64368;-75
2021/04/03 08:18:57;;;;;;;13.70;2.77;;;;;;;5.65;72.40;101840.45;112917;1209;64355;-76
2021/04/03 08:21:26;;;;;;;11.77;3.40;;;;;;;5.79;71.85;101839.40;112967;1209;64559;-76
2021/04/03 08:23:55;;;;;;;11.57;2.73;;;;;;;5.86;71.06;101834.50;112914;1209;64320;-76
2021/04/03 08:26:25;;;;;;;9.93;3.23;;;;;;;5.97;69.81;101837.22;112969;1209;64415;-75
2021/04/03 08:28:52;;;;;;;10.10;3.55;;;;;;;6.09;69.38;101835.42;113233;1209;65505;-76
2021/04/03 08:31:22;;;;;;;11.45;3.35;;;;;;;6.24;69.50;101838.67;112929;1209;64516;-75
2021/04/03 08:33:55;;;;;;;10.20;3.15;;;;;;;6.38;67.86;101846.36;113502;1209;64473;-75
2021/04/03 08:36:28;;;;;;;13.00;4.20;;;;;;;6.49;67.88;101838.44;113003;1209;64435;-75
2021/04/03 08:39:00;;;;;;;12.90;4.05;;;;;;;6.64;68.64;101840.84;115097;1209;64364;-73
2021/04/03 08:41:28;;;;;;;19.80;3.50;;;;;;;6.80;67.90;101851.00;112953;1209;64272;-75
2021/04/03 08:43:56;;;;;;;13.50;3.60;;;;;;;6.87;67.31;101839.85;113037;1209;64480;-75
2021/04/03 08:46:24;;;;;;;12.90;3.40;;;;;;;6.93;66.24;101844.64;112928;1209;64602;-75
2021/04/03 08:48:55;;;;;;;12.40;2.87;;;;;;;7.02;66.54;101835.14;113020;1209;64387;-76
2021/04/03 08:51:22;;;;;;;13.93;2.83;;;;;;;7.12;65.22;101832.62;112962;1209;64355;-75
2021/04/03 08:54:00;;;;;;;13.83;3.87;;;;;;;7.26;64.43;101836.75;112916;1209;64835;-74
2021/04/03 08:56:29;;;;;;;12.57;3.27;;;;;;;7.37;64.05;101827.95;113126;1209;64407;-74
2021/04/03 08:58:57;;;;;;;17.07;4.10;;;;;;;7.45;64.30;101831.64;113084;1209;64355;-75
2021/04/03 09:01:26;;;;;;;17.10;5.15;;;;;;;7.51;64.11;101830.30;112961;1209;64332;-76
2021/04/03 09:03:57;;;;;;;12.35;3.60;;;;;;;7.47;62.82;101837.63;113151;1209;64393;-75
2021/04/03 09:06:44;;;;;;;15.37;3.90;;;;;;;7.50;63.02;101820.69;113744;1209;64323;-76
2021/04/03 09:09:23;;;;;;;13.63;3.10;;;;;;;7.58;62.77;101822.70;112927;1209;64356;-78
2021/04/03 09:12:05;;;;;;;15.53;3.67;;;;;;;7.66;61.59;101818.45;115589;1209;64231;-78
2021/04/03 09:14:37;;;;;;;11.20;3.00;;;;;;;7.85;62.30;101822.20;115969;1209;62501;-77
2021/04/03 09:17:21;;;;;;;10.60;3.13;;;;;;;7.97;62.35;101818.53;113928;1209;64419;-76
2021/04/03 09:19:49;;;;;;;12.17;4.07;;;;;;;8.09;61.06;101822.75;112955;1209;64450;-75
2021/04/03 09:22:18;;;;;;;13.43;4.03;;;;;;;8.26;61.05;101825.77;112943;1209;64448;-75
2021/04/03 09:24:47;;;;;;;16.03;4.17;;;;;;;8.30;59.62;101827.18;113019;1209;64477;-75
2021/04/03 09:27:14;;;;;;;11.90;3.73;;;;;;;8.37;59.19;101823.02;112971;1209;64384;-75
2021/04/03 09:29:44;;;;;;;7.67;2.40;;;;;;;8.44;58.00;101823.39;112884;1209;64387;-75
2021/04/03 09:32:12;;;;;;;14.60;3.80;;;;;;;8.50;57.25;101823.69;113032;1209;64378;-75
2021/04/03 09:34:40;;;;;;;7.27;2.23;;;;;;;8.63;55.82;101807.58;113423;1209;65585;-76
2021/04/03 09:37:23;;;;;;;13.07;3.57;;;;;;;8.74;54.74;101823.34;112990;1209;66144;-77
2021/04/03 09:39:52;;;;;;;11.90;3.35;;;;;;;8.82;58.61;101825.31;112937;1209;64349;-75
2021/04/03 09:42:26;;;;;;;11.70;3.30;;;;;;;8.85;53.45;101817.09;112780;1209;64435;-75
2021/04/03 09:44:54;;;;;;;7.13;2.63;;;;;;;8.96;54.86;101818.78;113099;1209;64378;-75
2021/04/03 09:47:21;;;;;;;10.63;2.63;;;;;;;9.06;57.24;101824.94;113181;1209;64378;-76
2021/04/03 09:49:49;;;;;;;12.67;3.87;;;;;;;9.11;57.39;101817.41;112920;1209;64563;-75
2021/04/03 09:52:16;;;;;;;12.40;4.10;;;;;;;9.16;56.36;101822.31;113101;1209;64359;-76
2021/04/03 09:54:45;;;;;;;8.77;3.77;;;;;;;9.11;57.19;101833.28;112910;1209;65658;-75
2021/04/03 09:57:12;;;;;;;12.20;3.60;;;;;;;9.17;57.01;101816.03;112907;1209;64400;-76
2021/04/03 09:59:41;;;;;;;13.23;4.13;;;;;;;9.21;56.52;101817.42;112955;1209;64403;-75
2021/04/03 10:02:07;;;;;;;13.57;4.83;;;;;;;9.28;55.17;101815.05;112934;1209;64339;-76
2021/04/03 10:04:34;;;;;;;8.45;2.65;;;;;;;9.43;50.90;101815.48;112867;1209;64324;-75
2021/04/03 10:07:01;;;;;;;12.47;3.53;;;;;;;9.54;53.46;101815.32;112890;1209;64352;-75
2021/04/03 10:09:28;;;;;;;6.73;2.57;;;;;;;9.58;53.03;101808.77;113005;1209;64374;-75
2021/04/03 10:11:56;;;;;;;6.40;2.40;;;;;;;9.54;49.31;101815.32;112974;1209;64412;-75
2021/04/03 10:14:22;;;;;;;9.33;3.43;;;;;;;9.64;50.40;101810.86;113101;1209;64540;-75
2021/04/03 10:16:49;;;;;;;6.67;3.43;;;;;;;9.69;51.11;101816.59;112917;1209;64409;-75
2021/04/03 10:19:16;;;;;;;9.90;3.97;;;;;;;9.75;51.59;101815.16;112972;1209;64358;-76
2021/04/03 10:21:43;;;;;;;8.80;3.23;;;;;;;9.83;51.10;101812.64;112971;1209;64380;-75
2021/04/03 10:24:10;;;;;;;8.40;2.83;;;;;;;9.93;50.78;101818.77;112973;1209;64371;-75
2021/04/03 10:26:37;;;;;;;13.40;2.50;;;;;;;10.17;50.00;101815.62;112940;1209;64453;-75
2021/04/03 10:29:04;;;;;;;6.35;2.70;;;;;;;10.47;49.09;101819.02;113446;1209;64406;-76
2021/04/03 10:31:31;;;;;;;5.60;2.60;;;;;;;10.73;47.99;101819.19;112948;1209;64378;-76
2021/04/03 10:33:58;;;;;;;6.80;2.03;;;;;;;10.97;47.94;101818.63;113014;1209;64314;-75
2021/04/03 10:36:24;;;;;;;8.77;3.50;;;;;;;11.17;48.77;101823.79;112920;1209;65498;-76
2021/04/03 10:38:51;;;;;;;9.13;2.57;;;;;;;11.26;43.09;101809.59;112911;1209;64528;-76
2021/04/03 10:41:18;;;;;;;8.57;2.13;;;;;;;11.25;39.98;101815.91;112904;1209;64394;-75
2021/04/03 10:43:45;;;;;;;3.33;1.30;;;;;;;11.28;40.43;101812.93;112922;1209;64480;-76
2021/04/03 10:46:11;;;;;;;3.77;1.03;;;;;;;11.28;40.77;101820.90;113001;1209;64403;-76
2021/04/03 10:48:38;;;;;;;3.70;1.00;;;;;;;11.31;39.64;101820.61;113302;1209;64415;-77
2021/04/03 10:51:05;;;;;;;4.03;1.20;;;;;;;11.36;39.40;101812.18;112977;1209;64432;-76
2021/04/03 10:53:32;;;;;;;8.73;1.10;;;;;;;11.16;39.78;101822.96;112849;1209;64259;-76
2021/04/03 10:55:59;;;;;;;2.70;0.90;;;;;;;11.05;40.23;101822.33;113038;1209;64537;-76
2021/04/03 10:58:26;;;;;;;4.17;1.00;;;;;;;11.26;40.85;101814.08;112947;1209;64381;-76
2021/04/03 11:00:52;;;;;;;3.65;1.80;;;;;;;11.55;40.70;101811.18;112901;1209;64391;-75
2021/04/03 11:03:19;;;;;;;2.03;1.10;;;;;;;11.95;40.19;101812.50;112918;1209;64378;-75
2021/04/03 11:05:46;;;;;;;4.30;1.00;;;;;;;11.90;38.34;101812.12;113007;1209;64371;-76
2021/04/03 11:08:12;;;;;;;2.17;0.80;;;;;;;11.62;38.75;101813.08;112978;1209;65593;-74
2021/04/03 11:10:39;;;;;;;5.17;1.10;;;;;;;11.48;39.90;101804.83;112941;1209;64371;-76
2021/04/03 11:13:06;;;;;;;2.17;0.70;;;;;;;11.50;40.66;101818.79;112908;1209;64339;-77
2021/04/03 11:15:32;;;;;;;4.20;1.05;;;;;;;11.48;39.33;101810.97;112889;1209;64445;-75
2021/04/03 11:17:59;;;;;;;2.77;0.80;;;;;;;11.76;38.37;101809.02;112960;1209;64480;-75
2021/04/03 11:20:25;;;;;;;2.70;0.83;;;;;;;12.16;38.43;101809.47;112862;1209;64422;-75
2021/04/03 11:22:54;;;;;;;2.10;0.70;;;;;;;12.45;36.97;101809.09;113061;1209;64364;-75
2021/04/03 11:25:21;;;;;;;4.80;1.03;;;;;;;12.37;35.64;101814.41;112911;1209;65537;-74
2021/04/03 11:27:48;;;;;;;2.57;1.37;;;;;;;12.41;35.61;101805.08;112891;1209;64365;-76
2021/04/03 11:30:18;;;;;;;5.07;0.90;;;;;;;12.52;34.98;101799.48;112942;1209;64381;-75